createdAt,value
2022-09-28T00:01:19.061Z,7.46
2022-09-28T00:03:47.602Z,7.45
2022-09-28T00:06:17.215Z,7.48
2022-09-28T00:08:43.514Z,7.41
2022-09-28T00:11:12.561Z,7.40
2022-09-28T00:13:39.275Z,7.38
2022-09-28T00:16:12.649Z,7.38
2022-09-28T00:18:38.985Z,7.31
2022-09-28T00:21:11.254Z,7.23
2022-09-28T00:23:37.870Z,7.30
2022-09-28T00:26:05.316Z,7.30
2022-09-28T00:28:32.097Z,7.23
2022-09-28T00:30:58.829Z,7.31
2022-09-28T00:33:25.116Z,7.33
2022-09-28T00:35:58.740Z,7.32
2022-09-28T00:38:29.359Z,7.36
2022-09-28T00:40:56.048Z,7.30
2022-09-28T00:43:23.707Z,7.34
2022-09-28T00:45:58.990Z,7.38
2022-09-28T00:48:29.168Z,7.31
2022-09-28T00:50:57.283Z,7.35
2022-09-28T00:53:31.442Z,7.36
2022-09-28T00:56:01.853Z,7.37
2022-09-28T00:58:31.614Z,7.27
2022-09-28T01:00:59.123Z,7.22
2022-09-28T01:03:27.031Z,7.20
2022-09-28T01:05:55.265Z,7.11
2022-09-28T01:08:22.878Z,7.07
2022-09-28T01:10:49.243Z,7.06
2022-09-28T01:13:17.285Z,6.92
2022-09-28T01:15:55.789Z,6.89
2022-09-28T01:18:43.390Z,6.86
2022-09-28T01:21:21.342Z,6.98
2022-09-28T01:24:09.452Z,6.95
2022-09-28T01:26:50.725Z,6.80
2022-09-28T01:29:19.279Z,6.83
2022-09-28T01:31:52.638Z,6.88
2022-09-28T01:34:27.197Z,6.86
2022-09-28T01:36:56.078Z,6.72
2022-09-28T01:39:43.087Z,6.77
2022-09-28T01:42:14.522Z,7.08
2022-09-28T01:44:45.239Z,7.07
2022-09-28T01:47:15.071Z,6.98
2022-09-28T01:49:50.558Z,6.91
2022-09-28T01:52:36.219Z,6.99
2022-09-28T01:55:26.286Z,6.92
2022-09-28T01:58:02.137Z,7.17
2022-09-28T02:00:28.932Z,7.35
2022-09-28T02:03:01.951Z,7.34
2022-09-28T02:05:38.000Z,7.19
2022-09-28T02:08:23.572Z,7.37
2022-09-28T02:10:58.058Z,7.38
2022-09-28T02:13:37.405Z,7.23
2022-09-28T02:16:25.830Z,7.18
2022-09-28T02:18:52.498Z,7.16
2022-09-28T02:21:36.040Z,7.15
2022-09-28T02:24:52.526Z,6.97
2022-09-28T02:27:24.453Z,6.92
2022-09-28T02:29:50.851Z,6.96
2022-09-28T02:32:20.012Z,6.92
2022-09-28T02:34:46.375Z,6.88
2022-09-28T02:37:12.741Z,6.88
2022-09-28T02:39:39.034Z,6.89
2022-09-28T02:42:28.043Z,6.93
2022-09-28T02:45:06.451Z,6.90
2022-09-28T02:47:48.131Z,6.89
2022-09-28T02:50:36.595Z,6.76
2022-09-28T02:53:25.071Z,6.92
2022-09-28T02:56:03.265Z,6.94
2022-09-28T02:58:47.974Z,6.96
2022-09-28T03:01:17.318Z,6.79
2022-09-28T03:04:05.542Z,6.69
2022-09-28T03:06:47.036Z,6.66
2022-09-28T03:09:27.983Z,6.70
2022-09-28T03:12:01.220Z,6.75
2022-09-28T03:14:27.517Z,6.76
2022-09-28T03:16:53.844Z,6.82
2022-09-28T03:19:26.769Z,6.76
2022-09-28T03:21:53.511Z,6.84
2022-09-28T03:24:19.803Z,6.79
2022-09-28T03:26:46.094Z,6.81
2022-09-28T03:29:12.447Z,6.78
2022-09-28T03:31:38.840Z,6.84
2022-09-28T03:34:05.447Z,6.87
2022-09-28T03:36:31.758Z,6.90
2022-09-28T03:38:58.106Z,6.84
2022-09-28T03:41:24.921Z,6.89
2022-09-28T03:43:51.219Z,6.94
2022-09-28T03:46:17.594Z,6.93
2022-09-28T03:48:43.996Z,6.90
2022-09-28T03:51:10.799Z,6.97
2022-09-28T03:53:37.866Z,7.04
2022-09-28T03:56:11.086Z,6.97
2022-09-28T03:58:37.823Z,7.07
2022-09-28T04:01:14.208Z,7.11
2022-09-28T04:03:43.931Z,7.07
2022-09-28T04:06:10.918Z,6.93
2022-09-28T04:08:37.231Z,6.84
2022-09-28T04:11:03.566Z,6.77
2022-09-28T04:13:30.888Z,6.85
2022-09-28T04:15:59.463Z,6.89
2022-09-28T04:18:25.835Z,6.87
2022-09-28T04:21:03.257Z,6.93
2022-09-28T04:23:29.564Z,7.00
2022-09-28T04:25:55.903Z,7.05
2022-09-28T04:28:22.239Z,7.12
2022-09-28T04:30:48.528Z,7.06
2022-09-28T04:33:14.886Z,7.11
2022-09-28T04:35:41.237Z,6.96
2022-09-28T04:38:07.518Z,6.99
2022-09-28T04:40:33.954Z,7.01
2022-09-28T04:43:00.351Z,7.12
2022-09-28T04:45:26.719Z,7.10
2022-09-28T04:47:53.163Z,7.13
2022-09-28T04:50:19.497Z,7.06
2022-09-28T04:52:45.825Z,7.05
2022-09-28T04:55:12.904Z,7.05
2022-09-28T04:57:39.458Z,7.11
2022-09-28T05:00:07.894Z,7.17
2022-09-28T05:02:34.311Z,7.16
2022-09-28T05:05:00.634Z,7.19
2022-09-28T05:07:26.944Z,7.02
2022-09-28T05:09:53.391Z,7.11
2022-09-28T05:12:19.691Z,7.11
2022-09-28T05:14:45.976Z,7.14
2022-09-28T05:17:12.308Z,7.16
2022-09-28T05:19:38.602Z,7.11
2022-09-28T05:22:05.006Z,7.18
2022-09-28T05:24:31.550Z,6.98
2022-09-28T05:26:57.830Z,6.96
2022-09-28T05:29:24.135Z,7.04
2022-09-28T05:31:50.468Z,7.04
2022-09-28T05:34:16.804Z,7.11
2022-09-28T05:36:43.104Z,7.03
2022-09-28T05:39:09.450Z,7.11
2022-09-28T05:41:35.755Z,7.18
2022-09-28T05:44:02.030Z,7.23
2022-09-28T05:46:28.359Z,7.27
2022-09-28T05:48:54.743Z,7.30
2022-09-28T05:51:21.126Z,7.31
2022-09-28T05:53:47.499Z,7.24
2022-09-28T05:56:13.822Z,7.30
2022-09-28T05:58:40.113Z,7.34
2022-09-28T06:01:06.570Z,7.29
2022-09-28T06:03:32.943Z,7.22
2022-09-28T06:06:02.354Z,7.22
2022-09-28T06:08:30.592Z,7.32
2022-09-28T06:11:00.537Z,7.43
2022-09-28T06:13:27.744Z,7.45
2022-09-28T06:15:54.407Z,7.53
2022-09-28T06:18:20.780Z,7.49
2022-09-28T06:20:47.080Z,7.45
2022-09-28T06:23:13.727Z,7.46
2022-09-28T06:25:40.386Z,7.43
2022-09-28T06:28:13.343Z,7.44
2022-09-28T06:30:40.837Z,7.54
2022-09-28T06:33:09.778Z,7.52
2022-09-28T06:35:36.143Z,7.44
2022-09-28T06:38:02.947Z,7.53
2022-09-28T06:40:29.490Z,7.61
2022-09-28T06:42:59.944Z,7.69
2022-09-28T06:45:27.871Z,7.76
2022-09-28T06:47:59.130Z,7.83
2022-09-28T06:50:27.791Z,7.98
2022-09-28T06:52:55.411Z,8.01
2022-09-28T06:55:22.026Z,8.09
2022-09-28T06:57:59.900Z,8.26
2022-09-28T07:00:27.755Z,8.24
2022-09-28T07:02:54.206Z,8.23
2022-09-28T07:05:20.524Z,8.31
2022-09-28T07:07:46.819Z,8.45
2022-09-28T07:10:13.182Z,8.54
2022-09-28T07:12:39.488Z,8.57
2022-09-28T07:15:06.711Z,8.63
2022-09-28T07:17:34.446Z,8.82
2022-09-28T07:20:12.628Z,8.93
2022-09-28T07:22:43.900Z,9.07
2022-09-28T07:25:10.370Z,9.22
2022-09-28T07:27:36.695Z,9.31
2022-09-28T07:30:05.166Z,9.30
2022-09-28T07:35:03.089Z,9.16
2022-09-28T07:37:29.867Z,9.14
2022-09-28T07:40:07.669Z,9.08
2022-09-28T07:42:34.605Z,8.92
2022-09-28T07:48:07.556Z,9.13
2022-09-28T07:50:34.211Z,9.43
2022-09-28T07:53:00.704Z,9.65
2022-09-28T07:55:27.614Z,9.72
2022-09-28T07:57:55.497Z,9.66
2022-09-28T08:00:22.593Z,9.62
2022-09-28T08:02:54.864Z,9.65
2022-09-28T08:05:21.584Z,9.71
2022-09-28T08:07:47.861Z,9.68
2022-09-28T08:10:23.473Z,9.84
2022-09-28T08:12:59.312Z,10.14
2022-09-28T08:15:29.622Z,10.36
2022-09-28T08:17:58.002Z,10.44
2022-09-28T08:20:28.331Z,10.57
2022-09-28T08:22:54.887Z,10.63
2022-09-28T08:25:24.298Z,10.56
2022-09-28T08:27:50.980Z,10.61
2022-09-28T08:30:17.284Z,10.34
2022-09-28T08:32:47.484Z,10.17
2022-09-28T08:35:13.850Z,9.99
2022-09-28T08:37:40.156Z,10.00
2022-09-28T08:40:16.856Z,10.26
2022-09-28T08:42:44.220Z,10.54
2022-09-28T08:45:35.293Z,10.71
2022-09-28T08:48:19.289Z,10.63
2022-09-28T08:51:05.957Z,10.81
2022-09-28T08:53:53.528Z,11.02
2022-09-28T08:56:31.890Z,11.02
2022-09-28T08:59:02.719Z,10.88
2022-09-28T09:01:37.047Z,10.78
2022-09-28T09:04:06.075Z,10.32
2022-09-28T09:06:48.024Z,10.21
2022-09-28T09:10:02.240Z,10.03
2022-09-28T09:12:33.894Z,10.04
2022-09-28T09:15:19.141Z,9.80
2022-09-28T09:18:04.254Z,9.48
2022-09-28T09:20:47.313Z,9.26
2022-09-28T09:23:33.738Z,9.37
2022-09-28T09:26:21.584Z,8.68
2022-09-28T09:28:56.803Z,8.19
2022-09-28T09:31:46.458Z,8.14
2022-09-28T09:34:34.129Z,8.03
2022-09-28T09:37:10.649Z,8.24
2022-09-28T09:39:57.487Z,8.18
2022-09-28T09:42:39.998Z,8.06
2022-09-28T09:45:52.196Z,7.87
2022-09-28T09:48:28.932Z,7.90
2022-09-28T09:51:13.470Z,7.90
2022-09-28T09:53:51.907Z,7.92
2022-09-28T09:56:26.121Z,7.98
2022-09-28T09:59:02.089Z,8.11
2022-09-28T10:01:35.905Z,8.14
2022-09-28T10:04:06.382Z,8.15
2022-09-28T10:06:37.609Z,8.29
2022-09-28T10:09:13.524Z,8.34
2022-09-28T10:11:43.939Z,8.34
2022-09-28T10:14:18.783Z,8.37
2022-09-28T10:16:45.755Z,8.40
2022-09-28T10:19:13.081Z,8.20
2022-09-28T10:21:41.261Z,8.50
2022-09-28T10:24:17.666Z,8.46
2022-09-28T10:26:51.708Z,8.46
2022-09-28T10:29:22.985Z,8.40
2022-09-28T10:31:51.599Z,8.83
2022-09-28T10:34:26.182Z,8.73
2022-09-28T10:36:55.848Z,8.70
2022-09-28T10:39:37.425Z,9.44
2022-09-28T10:42:08.573Z,9.37
2022-09-28T10:44:48.521Z,9.69
2022-09-28T10:47:17.666Z,9.75
2022-09-28T10:49:47.342Z,9.36
2022-09-28T10:52:43.035Z,9.27
2022-09-28T10:55:30.774Z,9.36
2022-09-28T10:57:57.113Z,9.37
2022-09-28T11:00:34.102Z,9.31
2022-09-28T11:03:02.249Z,9.30
2022-09-28T11:05:29.186Z,9.43
2022-09-28T11:07:58.315Z,9.42
2022-09-28T11:10:27.327Z,9.58
2022-09-28T11:12:54.818Z,9.66
2022-09-28T11:15:25.857Z,9.88
2022-09-28T11:17:52.245Z,10.07
2022-09-28T11:20:27.397Z,10.18
2022-09-28T11:22:55.979Z,10.25
2022-09-28T11:25:30.182Z,10.32
2022-09-28T11:27:59.323Z,10.39
2022-09-28T11:30:25.641Z,10.60
2022-09-28T11:32:56.961Z,10.72
2022-09-28T11:35:29.296Z,10.84
2022-09-28T11:38:15.188Z,10.97
2022-09-28T11:40:55.050Z,10.93
2022-09-28T11:43:39.517Z,11.01
2022-09-28T11:46:19.543Z,10.92
2022-09-28T11:48:51.046Z,11.02
2022-09-28T11:51:30.290Z,11.02
2022-09-28T11:54:12.363Z,11.05
2022-09-28T11:56:43.708Z,11.04
2022-09-28T11:59:20.978Z,11.10
2022-09-28T12:01:53.217Z,10.97
2022-09-28T12:04:39.727Z,10.81
2022-09-28T12:07:25.514Z,11.01
2022-09-28T12:10:03.199Z,11.16
2022-09-28T12:12:40.091Z,11.61
2022-09-28T12:15:17.739Z,11.61
2022-09-28T12:17:50.338Z,11.64
2022-09-28T12:20:16.635Z,11.71
2022-09-28T12:22:49.433Z,11.67
2022-09-28T12:25:20.574Z,11.80
2022-09-28T12:27:55.924Z,12.04
2022-09-28T12:30:24.102Z,12.31
2022-09-28T12:33:00.343Z,12.27
2022-09-28T12:35:43.711Z,12.14
2022-09-28T12:38:30.807Z,12.26
2022-09-28T12:41:12.125Z,12.34
2022-09-28T12:43:58.605Z,12.53
2022-09-28T12:46:34.136Z,12.57
2022-09-28T12:50:13.764Z,12.34
2022-09-28T12:52:25.989Z,12.41
2022-09-28T12:55:06.613Z,12.39
2022-09-28T12:57:49.563Z,12.00
2022-09-28T13:00:19.694Z,11.77
2022-09-28T13:02:45.960Z,11.61
2022-09-28T13:05:34.067Z,11.13
2022-09-28T13:08:25.192Z,10.63
2022-09-28T13:11:08.465Z,10.19
2022-09-28T13:13:53.236Z,9.71
2022-09-28T13:16:34.129Z,9.84
2022-09-28T13:19:11.056Z,10.00
2022-09-28T13:21:46.954Z,10.13
2022-09-28T13:24:32.084Z,10.48
2022-09-28T13:27:05.650Z,10.75
2022-09-28T13:29:32.451Z,11.02
2022-09-28T13:32:01.216Z,11.37
2022-09-28T13:34:32.399Z,11.78
2022-09-28T13:37:13.889Z,12.03
2022-09-28T13:39:46.151Z,12.20
2022-09-28T13:42:24.410Z,12.20
2022-09-28T13:45:17.291Z,12.36
2022-09-28T13:47:56.227Z,12.27
2022-09-28T13:50:47.604Z,12.19
2022-09-28T13:54:15.833Z,12.02
2022-09-28T13:56:53.351Z,12.02
2022-09-28T13:59:26.203Z,11.79
2022-09-28T14:02:28.846Z,11.63
2022-09-28T14:05:25.546Z,11.55
2022-09-28T14:08:22.556Z,11.68
2022-09-28T14:10:54.428Z,11.58
2022-09-28T14:13:42.372Z,11.69
2022-09-28T14:16:17.882Z,11.75
2022-09-28T14:19:12.262Z,12.05
2022-09-28T14:22:15.906Z,12.02
2022-09-28T14:25:04.504Z,12.47
2022-09-28T14:27:59.754Z,12.92
2022-09-28T14:30:47.695Z,13.33
2022-09-28T14:33:20.090Z,13.59
2022-09-28T14:35:51.896Z,13.20
2022-09-28T14:38:22.128Z,12.98
2022-09-28T14:40:59.546Z,12.76
2022-09-28T14:43:44.162Z,12.40
2022-09-28T14:46:10.451Z,12.23
2022-09-28T14:48:59.777Z,12.19
2022-09-28T14:51:26.039Z,12.11
2022-09-28T14:54:00.587Z,12.08
2022-09-28T14:56:38.118Z,11.99
2022-09-28T14:59:06.428Z,12.10
2022-09-28T15:01:34.332Z,11.96
2022-09-28T15:04:04.683Z,11.85
2022-09-28T15:06:47.858Z,11.72
2022-09-28T15:09:33.494Z,11.72
2022-09-28T15:12:04.011Z,11.74
2022-09-28T15:14:34.087Z,11.80
2022-09-28T15:17:08.046Z,11.52
2022-09-28T15:19:53.300Z,11.27
2022-09-28T15:22:20.699Z,11.28
2022-09-28T15:25:00.026Z,11.27
2022-09-28T15:27:36.909Z,11.28
2022-09-28T15:30:29.039Z,11.13
2022-09-28T15:32:57.333Z,10.84
2022-09-28T15:35:26.469Z,10.81
2022-09-28T15:37:54.760Z,10.78
2022-09-28T15:40:37.342Z,10.76
2022-09-28T15:43:20.741Z,10.79
2022-09-28T15:45:56.789Z,10.77
2022-09-28T15:49:01.427Z,10.70
2022-09-28T15:51:29.505Z,10.47
2022-09-28T15:54:01.340Z,10.28
2022-09-28T15:56:28.703Z,10.36
2022-09-28T15:59:13.227Z,10.41
2022-09-28T16:01:42.256Z,10.39
2022-09-28T16:04:37.989Z,10.28
2022-09-28T16:07:10.218Z,10.28
2022-09-28T16:09:57.634Z,10.46
2022-09-28T16:12:27.717Z,10.66
2022-09-28T16:14:57.732Z,10.76
2022-09-28T16:17:35.075Z,10.72
2022-09-28T16:20:05.175Z,10.68
2022-09-28T16:22:32.289Z,10.65
2022-09-28T16:25:00.606Z,10.61
2022-09-28T16:27:39.584Z,10.62
2022-09-28T16:30:16.954Z,10.64
2022-09-28T16:33:27.408Z,10.54
2022-09-28T16:35:53.716Z,10.23
2022-09-28T16:38:20.549Z,10.12
2022-09-28T16:40:52.062Z,9.90
2022-09-28T16:43:27.428Z,9.79
2022-09-28T16:45:55.478Z,9.65
2022-09-28T16:48:27.116Z,9.48
2022-09-28T16:50:53.601Z,9.34
2022-09-28T16:53:20.030Z,9.13
2022-09-28T16:55:48.443Z,8.82
2022-09-28T16:58:15.029Z,8.83
2022-09-28T17:00:41.712Z,8.68
2022-09-28T17:03:14.082Z,8.59
2022-09-28T17:05:40.757Z,8.51
2022-09-28T17:08:10.998Z,8.48
2022-09-28T17:11:02.633Z,8.33
2022-09-28T17:13:31.283Z,8.20
2022-09-28T17:15:58.728Z,8.11
2022-09-28T17:18:25.601Z,7.97
2022-09-28T17:20:53.943Z,7.98
2022-09-28T17:23:20.973Z,7.85
2022-09-28T17:25:47.937Z,7.69
2022-09-28T17:28:26.843Z,7.54
2022-09-28T17:30:54.405Z,7.50
2022-09-28T17:33:21.006Z,7.48
2022-09-28T17:35:48.592Z,7.47
2022-09-28T17:38:15.869Z,7.40
2022-09-28T17:40:43.988Z,7.35
2022-09-28T17:43:11.099Z,7.30
2022-09-28T17:45:39.224Z,7.24
2022-09-28T17:48:07.141Z,7.16
2022-09-28T17:50:34.888Z,7.13
2022-09-28T17:53:01.397Z,7.08
2022-09-28T17:55:29.750Z,7.02
2022-09-28T17:57:56.387Z,6.95
2022-09-28T18:00:23.170Z,6.91
2022-09-28T18:02:51.041Z,6.84
2022-09-28T18:05:17.510Z,6.80
2022-09-28T18:07:47.888Z,6.75
2022-09-28T18:10:17.275Z,6.76
2022-09-28T18:12:43.723Z,6.69
2022-09-28T18:15:10.802Z,6.65
2022-09-28T18:17:38.992Z,6.68
2022-09-28T18:20:07.489Z,6.68
2022-09-28T18:22:34.434Z,6.70
2022-09-28T18:25:01.629Z,6.64
2022-09-28T18:27:32.053Z,6.68
2022-09-28T18:29:58.652Z,6.65
2022-09-28T18:32:25.164Z,6.61
2022-09-28T18:34:52.202Z,6.53
2022-09-28T18:37:18.686Z,6.50
2022-09-28T18:39:44.993Z,6.49
2022-09-28T18:42:14.730Z,6.50
2022-09-28T18:44:41.109Z,6.51
2022-09-28T18:47:07.540Z,6.57
2022-09-28T18:49:33.910Z,6.63
2022-09-28T18:52:00.442Z,6.68
2022-09-28T18:54:26.974Z,6.75
2022-09-28T18:56:56.385Z,6.83
2022-09-28T18:59:23.320Z,6.79
2022-09-28T19:01:50.015Z,6.76
2022-09-28T19:04:16.598Z,6.68
2022-09-28T19:06:43.056Z,6.67
2022-09-28T19:09:10.025Z,6.56
2022-09-28T19:11:36.629Z,6.51
2022-09-28T19:14:03.044Z,6.49
2022-09-28T19:16:31.090Z,6.52
2022-09-28T19:18:58.506Z,6.49
2022-09-28T19:21:25.700Z,6.59
2022-09-28T19:23:52.082Z,6.72
2022-09-28T19:26:21.542Z,6.79
2022-09-28T19:28:48.715Z,6.84
2022-09-28T19:31:15.684Z,6.86
2022-09-28T19:33:42.218Z,6.82
2022-09-28T19:36:14.575Z,6.77
2022-09-28T19:38:41.169Z,6.65
2022-09-28T19:41:12.564Z,6.62
2022-09-28T19:43:39.326Z,6.56
2022-09-28T19:46:11.809Z,6.56
2022-09-28T19:48:38.228Z,6.54
2022-09-28T19:51:06.484Z,6.51
2022-09-28T19:53:34.758Z,6.58
2022-09-28T19:56:01.229Z,6.51
2022-09-28T19:58:34.464Z,6.55
2022-09-28T20:01:05.153Z,6.64
2022-09-28T20:03:31.446Z,6.58
2022-09-28T20:05:59.441Z,6.61
2022-09-28T20:08:26.560Z,6.61
2022-09-28T20:10:54.346Z,6.59
2022-09-28T20:13:21.573Z,6.61
2022-09-28T20:15:47.942Z,6.62
2022-09-28T20:18:14.987Z,6.61
2022-09-28T20:20:41.631Z,6.61
2022-09-28T20:23:10.321Z,6.63
2022-09-28T20:25:36.697Z,6.57
2022-09-28T20:28:03.171Z,6.62
2022-09-28T20:30:29.480Z,6.56
2022-09-28T20:32:55.893Z,6.53
2022-09-28T20:35:32.305Z,6.49
2022-09-28T20:37:59.509Z,6.45
2022-09-28T20:40:25.886Z,6.41
2022-09-28T20:42:52.226Z,6.45
2022-09-28T20:45:18.535Z,6.37
2022-09-28T20:47:44.875Z,6.34
2022-09-28T20:50:11.175Z,6.33
2022-09-28T20:52:37.479Z,6.36
2022-09-28T20:55:03.984Z,6.25
2022-09-28T20:57:30.291Z,6.26
2022-09-28T20:59:56.625Z,6.21
2022-09-28T21:02:23.051Z,6.17
2022-09-28T21:04:49.435Z,6.23
2022-09-28T21:07:15.780Z,6.14
2022-09-28T21:09:42.155Z,6.04
2022-09-28T21:12:08.546Z,5.96
2022-09-28T21:14:34.950Z,5.91
2022-09-28T21:17:01.399Z,5.87
2022-09-28T21:19:27.751Z,5.85
2022-09-28T21:21:54.374Z,5.78
2022-09-28T21:24:20.848Z,5.76
2022-09-28T21:26:47.178Z,5.70
2022-09-28T21:29:15.145Z,5.76
2022-09-28T21:31:45.982Z,5.76
2022-09-28T21:34:17.245Z,5.83
2022-09-28T21:36:43.656Z,5.84
2022-09-28T21:39:10.613Z,5.86
2022-09-28T21:41:37.429Z,5.84
2022-09-28T21:44:03.814Z,5.89
2022-09-28T21:46:30.190Z,5.91
2022-09-28T21:48:56.523Z,5.98
2022-09-28T21:51:22.843Z,5.97
2022-09-28T21:53:49.171Z,5.94
2022-09-28T21:56:15.510Z,5.88
2022-09-28T21:58:41.824Z,5.91
2022-09-28T22:01:11.689Z,5.86
2022-09-28T22:03:38.052Z,5.80
2022-09-28T22:06:05.311Z,5.69
2022-09-28T22:08:32.295Z,5.49
2022-09-28T22:11:06.676Z,5.41
2022-09-28T22:13:40.647Z,5.35
2022-09-28T22:16:08.100Z,5.32
2022-09-28T22:18:34.543Z,5.28
2022-09-28T22:21:08.929Z,5.20
2022-09-28T22:23:36.424Z,5.15
2022-09-28T22:26:12.243Z,5.08
2022-09-28T22:28:44.131Z,5.04
2022-09-28T22:31:10.500Z,5.04
2022-09-28T22:33:36.827Z,5.09
2022-09-28T22:36:03.329Z,5.12
2022-09-28T22:38:31.866Z,5.11
2022-09-28T22:40:58.327Z,5.12
2022-09-28T22:43:26.221Z,5.12
2022-09-28T22:46:04.501Z,5.12
2022-09-28T22:48:31.903Z,5.10
2022-09-28T22:50:58.783Z,5.15
2022-09-28T22:53:25.147Z,5.19
2022-09-28T22:55:51.483Z,5.14
2022-09-28T22:58:17.947Z,5.15
2022-09-28T23:00:44.284Z,5.13
2022-09-28T23:03:10.707Z,5.16
2022-09-28T23:05:37.147Z,5.16
2022-09-28T23:08:04.013Z,5.18
2022-09-28T23:10:30.379Z,5.19
2022-09-28T23:12:56.786Z,5.20
2022-09-28T23:15:23.151Z,5.25
2022-09-28T23:17:53.121Z,5.32
2022-09-28T23:20:21.165Z,5.33
2022-09-28T23:22:48.486Z,5.40
2022-09-28T23:25:16.184Z,5.46
2022-09-28T23:27:50.096Z,5.45
2022-09-28T23:30:18.917Z,5.52
2022-09-28T23:32:45.709Z,5.63
2022-09-28T23:35:13.362Z,5.65
2022-09-28T23:37:39.943Z,5.78
2022-09-28T23:40:07.184Z,5.82
2022-09-28T23:42:33.615Z,5.82
2022-09-28T23:44:59.936Z,5.88
2022-09-28T23:47:26.324Z,5.91
2022-09-28T23:49:52.626Z,5.94
2022-09-28T23:52:18.989Z,6.03
2022-09-28T23:54:45.287Z,6.14
2022-09-28T23:57:11.602Z,6.13
2022-09-28T23:59:37.935Z,6.10
